sensor_id;sensor_type;location;lat;lon;timestamp;temperature;humidity
36594;DHT22;22603;47.900;8.146;2023-07-20T00:01:43;16.90;99.90
36594;DHT22;22603;47.900;8.146;2023-07-20T00:04:32;16.90;99.90
36594;DHT22;22603;47.900;8.146;2023-07-20T00:07:18;16.80;99.90
36594;DHT22;22603;47.900;8.146;2023-07-20T00:10:06;16.70;99.90
36594;DHT22;22603;47.900;8.146;2023-07-20T00:12:52;16.60;99.90
36594;DHT22;22603;47.900;8.146;2023-07-20T00:15:39;16.50;99.90
36594;DHT22;22603;47.900;8.146;2023-07-20T00:18:26;16.50;99.90
36594;DHT22;22603;47.900;8.146;2023-07-20T00:21:14;16.50;99.90
36594;DHT22;22603;47.900;8.146;2023-07-20T00:24:01;16.40;99.90
36594;DHT22;22603;47.900;8.146;2023-07-20T00:26:48;16.30;99.90
36594;DHT22;22603;47.900;8.146;2023-07-20T00:29:35;16.20;99.90
36594;DHT22;22603;47.900;8.146;2023-07-20T00:32:21;16.00;99.90
36594;DHT22;22603;47.900;8.146;2023-07-20T00:35:08;15.90;99.90
36594;DHT22;22603;47.900;8.146;2023-07-20T00:37:57;15.90;99.90
36594;DHT22;22603;47.900;8.146;2023-07-20T00:40:44;15.80;99.90
36594;DHT22;22603;47.900;8.146;2023-07-20T00:43:31;15.70;99.90
36594;DHT22;22603;47.900;8.146;2023-07-20T00:46:18;15.70;99.90
36594;DHT22;22603;47.900;8.146;2023-07-20T00:49:06;15.60;99.90
36594;DHT22;22603;47.900;8.146;2023-07-20T00:51:52;15.60;99.90
36594;DHT22;22603;47.900;8.146;2023-07-20T00:54:41;15.50;99.90
36594;DHT22;22603;47.900;8.146;2023-07-20T00:57:28;15.40;99.90
36594;DHT22;22603;47.900;8.146;2023-07-20T01:00:15;15.40;99.90
36594;DHT22;22603;47.900;8.146;2023-07-20T01:03:02;15.30;99.90
36594;DHT22;22603;47.900;8.146;2023-07-20T01:05:54;15.30;99.90
36594;DHT22;22603;47.900;8.146;2023-07-20T01:08:46;15.20;99.90
36594;DHT22;22603;47.900;8.146;2023-07-20T01:11:41;15.20;99.90
36594;DHT22;22603;47.900;8.146;2023-07-20T01:14:29;15.10;99.90
36594;DHT22;22603;47.900;8.146;2023-07-20T01:17:18;15.00;99.90
36594;DHT22;22603;47.900;8.146;2023-07-20T01:20:06;15.00;99.90
36594;DHT22;22603;47.900;8.146;2023-07-20T01:23:03;15.10;99.90
36594;DHT22;22603;47.900;8.146;2023-07-20T01:26:10;15.10;99.90
36594;DHT22;22603;47.900;8.146;2023-07-20T01:29:15;15.00;99.90
36594;DHT22;22603;47.900;8.146;2023-07-20T01:32:07;14.90;99.90
36594;DHT22;22603;47.900;8.146;2023-07-20T01:34:56;14.80;99.90
36594;DHT22;22603;47.900;8.146;2023-07-20T01:37:46;14.80;99.90
36594;DHT22;22603;47.900;8.146;2023-07-20T01:40:33;14.70;99.90
36594;DHT22;22603;47.900;8.146;2023-07-20T01:43:21;14.60;99.90
36594;DHT22;22603;47.900;8.146;2023-07-20T01:46:08;14.50;99.90
36594;DHT22;22603;47.900;8.146;2023-07-20T01:48:57;14.40;99.90
36594;DHT22;22603;47.900;8.146;2023-07-20T01:51:43;14.30;99.90
36594;DHT22;22603;47.900;8.146;2023-07-20T01:54:31;14.20;99.90
36594;DHT22;22603;47.900;8.146;2023-07-20T01:57:17;14.20;99.90
36594;DHT22;22603;47.900;8.146;2023-07-20T02:00:05;14.10;99.90
36594;DHT22;22603;47.900;8.146;2023-07-20T02:02:52;14.00;99.90
36594;DHT22;22603;47.900;8.146;2023-07-20T02:05:42;13.90;99.90
36594;DHT22;22603;47.900;8.146;2023-07-20T02:08:29;13.80;99.90
36594;DHT22;22603;47.900;8.146;2023-07-20T02:11:16;13.80;99.90
36594;DHT22;22603;47.900;8.146;2023-07-20T02:14:03;13.80;99.90
36594;DHT22;22603;47.900;8.146;2023-07-20T02:16:51;13.80;99.90
36594;DHT22;22603;47.900;8.146;2023-07-20T02:19:40;13.80;99.90
36594;DHT22;22603;47.900;8.146;2023-07-20T02:22:28;13.70;99.90
36594;DHT22;22603;47.900;8.146;2023-07-20T02:25:15;13.70;99.90
36594;DHT22;22603;47.900;8.146;2023-07-20T02:28:04;13.70;99.90
36594;DHT22;22603;47.900;8.146;2023-07-20T02:30:51;13.60;99.90
36594;DHT22;22603;47.900;8.146;2023-07-20T02:33:37;13.50;99.90
36594;DHT22;22603;47.900;8.146;2023-07-20T02:36:24;13.50;99.90
36594;DHT22;22603;47.900;8.146;2023-07-20T02:39:12;13.40;99.90
36594;DHT22;22603;47.900;8.146;2023-07-20T02:41:59;13.30;99.90
36594;DHT22;22603;47.900;8.146;2023-07-20T02:44:46;13.20;99.90
36594;DHT22;22603;47.900;8.146;2023-07-20T02:47:33;13.20;99.90
36594;DHT22;22603;47.900;8.146;2023-07-20T02:50:20;13.10;99.90
36594;DHT22;22603;47.900;8.146;2023-07-20T02:53:06;13.00;99.90
36594;DHT22;22603;47.900;8.146;2023-07-20T02:55:55;12.90;99.90
36594;DHT22;22603;47.900;8.146;2023-07-20T02:58:42;12.90;99.90
36594;DHT22;22603;47.900;8.146;2023-07-20T03:01:31;12.90;99.90
36594;DHT22;22603;47.900;8.146;2023-07-20T03:04:19;12.90;99.90
36594;DHT22;22603;47.900;8.146;2023-07-20T03:07:06;12.80;99.90
36594;DHT22;22603;47.900;8.146;2023-07-20T03:09:53;12.90;99.90
36594;DHT22;22603;47.900;8.146;2023-07-20T03:12:41;12.90;99.90
36594;DHT22;22603;47.900;8.146;2023-07-20T03:15:28;12.90;99.90
36594;DHT22;22603;47.900;8.146;2023-07-20T03:18:16;12.90;99.90
36594;DHT22;22603;47.900;8.146;2023-07-20T03:21:03;12.90;99.90
36594;DHT22;22603;47.900;8.146;2023-07-20T03:23:50;12.90;99.90
36594;DHT22;22603;47.900;8.146;2023-07-20T03:26:37;12.90;99.90
36594;DHT22;22603;47.900;8.146;2023-07-20T03:29:24;12.90;99.90
36594;DHT22;22603;47.900;8.146;2023-07-20T03:32:11;12.80;99.90
36594;DHT22;22603;47.900;8.146;2023-07-20T03:34:58;12.80;99.90
36594;DHT22;22603;47.900;8.146;2023-07-20T03:37:44;12.70;99.90
36594;DHT22;22603;47.900;8.146;2023-07-20T03:40:31;12.60;99.90
36594;DHT22;22603;47.900;8.146;2023-07-20T03:43:19;12.70;99.90
36594;DHT22;22603;47.900;8.146;2023-07-20T03:46:07;12.60;99.90
36594;DHT22;22603;47.900;8.146;2023-07-20T03:48:54;12.60;99.90
36594;DHT22;22603;47.900;8.146;2023-07-20T03:51:41;12.50;99.90
36594;DHT22;22603;47.900;8.146;2023-07-20T03:54:28;12.50;99.90
36594;DHT22;22603;47.900;8.146;2023-07-20T03:57:14;12.40;99.90
36594;DHT22;22603;47.900;8.146;2023-07-20T04:00:02;12.40;99.90
36594;DHT22;22603;47.900;8.146;2023-07-20T04:02:51;12.50;99.90
36594;DHT22;22603;47.900;8.146;2023-07-20T04:05:38;12.50;99.90
36594;DHT22;22603;47.900;8.146;2023-07-20T04:08:25;12.40;99.90
36594;DHT22;22603;47.900;8.146;2023-07-20T04:11:11;12.40;99.90
36594;DHT22;22603;47.900;8.146;2023-07-20T04:13:59;12.50;99.90
36594;DHT22;22603;47.900;8.146;2023-07-20T04:16:46;12.50;99.90
36594;DHT22;22603;47.900;8.146;2023-07-20T04:19:34;12.60;99.90
36594;DHT22;22603;47.900;8.146;2023-07-20T04:22:21;12.60;99.90
36594;DHT22;22603;47.900;8.146;2023-07-20T04:25:08;12.60;99.90
36594;DHT22;22603;47.900;8.146;2023-07-20T04:27:56;12.50;99.90
36594;DHT22;22603;47.900;8.146;2023-07-20T04:30:42;12.50;99.90
36594;DHT22;22603;47.900;8.146;2023-07-20T04:33:29;12.60;99.90
36594;DHT22;22603;47.900;8.146;2023-07-20T04:36:17;12.70;99.90
36594;DHT22;22603;47.900;8.146;2023-07-20T04:39:05;12.70;99.90
36594;DHT22;22603;47.900;8.146;2023-07-20T04:42:06;12.90;99.90
36594;DHT22;22603;47.900;8.146;2023-07-20T04:44:53;12.90;99.90
36594;DHT22;22603;47.900;8.146;2023-07-20T04:47:39;13.00;99.90
36594;DHT22;22603;47.900;8.146;2023-07-20T04:50:26;13.10;99.90
36594;DHT22;22603;47.900;8.146;2023-07-20T04:53:14;13.20;99.90
36594;DHT22;22603;47.900;8.146;2023-07-20T04:56:01;13.20;99.90
36594;DHT22;22603;47.900;8.146;2023-07-20T04:58:48;13.30;99.90
36594;DHT22;22603;47.900;8.146;2023-07-20T05:01:35;13.40;99.90
36594;DHT22;22603;47.900;8.146;2023-07-20T05:04:22;13.50;99.90
36594;DHT22;22603;47.900;8.146;2023-07-20T05:07:09;13.60;99.90
36594;DHT22;22603;47.900;8.146;2023-07-20T05:09:57;13.70;99.90
36594;DHT22;22603;47.900;8.146;2023-07-20T05:12:47;13.80;99.90
36594;DHT22;22603;47.900;8.146;2023-07-20T05:15:34;13.90;99.90
36594;DHT22;22603;47.900;8.146;2023-07-20T05:18:20;14.10;99.90
36594;DHT22;22603;47.900;8.146;2023-07-20T05:21:07;14.20;99.90
36594;DHT22;22603;47.900;8.146;2023-07-20T05:23:54;14.40;99.90
36594;DHT22;22603;47.900;8.146;2023-07-20T05:26:42;14.40;99.90
36594;DHT22;22603;47.900;8.146;2023-07-20T05:29:28;14.50;99.90
36594;DHT22;22603;47.900;8.146;2023-07-20T05:32:15;14.50;99.90
36594;DHT22;22603;47.900;8.146;2023-07-20T05:35:02;14.50;99.90
36594;DHT22;22603;47.900;8.146;2023-07-20T05:37:49;14.60;99.90
36594;DHT22;22603;47.900;8.146;2023-07-20T05:40:37;14.70;99.90
36594;DHT22;22603;47.900;8.146;2023-07-20T05:43:25;14.80;99.90
36594;DHT22;22603;47.900;8.146;2023-07-20T05:46:12;15.00;99.90
36594;DHT22;22603;47.900;8.146;2023-07-20T05:48:59;15.10;99.90
36594;DHT22;22603;47.900;8.146;2023-07-20T05:51:45;15.20;99.90
36594;DHT22;22603;47.900;8.146;2023-07-20T05:54:33;15.20;99.90
36594;DHT22;22603;47.900;8.146;2023-07-20T05:57:19;15.30;99.90
36594;DHT22;22603;47.900;8.146;2023-07-20T06:00:09;15.40;99.90
36594;DHT22;22603;47.900;8.146;2023-07-20T06:02:59;15.50;99.90
36594;DHT22;22603;47.900;8.146;2023-07-20T06:05:46;15.60;99.90
36594;DHT22;22603;47.900;8.146;2023-07-20T06:08:33;15.70;99.90
36594;DHT22;22603;47.900;8.146;2023-07-20T06:11:20;15.90;99.90
36594;DHT22;22603;47.900;8.146;2023-07-20T06:14:07;16.00;99.90
36594;DHT22;22603;47.900;8.146;2023-07-20T06:16:55;16.10;99.90
36594;DHT22;22603;47.900;8.146;2023-07-20T06:19:42;16.20;99.90
36594;DHT22;22603;47.900;8.146;2023-07-20T06:22:29;16.40;99.90
36594;DHT22;22603;47.900;8.146;2023-07-20T06:25:15;16.50;99.90
36594;DHT22;22603;47.900;8.146;2023-07-20T06:31:35;16.70;99.90
36594;DHT22;22603;47.900;8.146;2023-07-20T06:34:23;17.20;99.90
36594;DHT22;22603;47.900;8.146;2023-07-20T06:37:10;18.20;99.90
36594;DHT22;22603;47.900;8.146;2023-07-20T06:39:57;18.90;99.90
36594;DHT22;22603;47.900;8.146;2023-07-20T06:42:47;20.00;99.90
36594;DHT22;22603;47.900;8.146;2023-07-20T06:45:37;20.70;99.90
36594;DHT22;22603;47.900;8.146;2023-07-20T06:48:24;21.40;99.90
36594;DHT22;22603;47.900;8.146;2023-07-20T06:51:12;22.00;99.90
36594;DHT22;22603;47.900;8.146;2023-07-20T06:53:59;22.60;99.90
36594;DHT22;22603;47.900;8.146;2023-07-20T06:56:46;23.10;99.90
36594;DHT22;22603;47.900;8.146;2023-07-20T06:59:45;23.10;99.90
36594;DHT22;22603;47.900;8.146;2023-07-20T07:02:33;23.60;99.90
36594;DHT22;22603;47.900;8.146;2023-07-20T07:05:21;23.80;99.90
36594;DHT22;22603;47.900;8.146;2023-07-20T07:08:09;24.00;99.90
36594;DHT22;22603;47.900;8.146;2023-07-20T07:10:56;23.50;99.90
36594;DHT22;22603;47.900;8.146;2023-07-20T07:13:43;23.80;99.90
36594;DHT22;22603;47.900;8.146;2023-07-20T07:16:32;24.60;99.90
36594;DHT22;22603;47.900;8.146;2023-07-20T07:19:24;24.30;99.90
36594;DHT22;22603;47.900;8.146;2023-07-20T07:22:11;24.90;99.90
36594;DHT22;22603;47.900;8.146;2023-07-20T07:25:00;25.00;99.90
36594;DHT22;22603;47.900;8.146;2023-07-20T07:27:48;25.50;99.90
36594;DHT22;22603;47.900;8.146;2023-07-20T07:30:35;25.60;99.90
36594;DHT22;22603;47.900;8.146;2023-07-20T07:33:22;25.50;99.90
36594;DHT22;22603;47.900;8.146;2023-07-20T07:36:10;26.00;99.90
36594;DHT22;22603;47.900;8.146;2023-07-20T07:38:57;26.10;99.90
36594;DHT22;22603;47.900;8.146;2023-07-20T07:41:48;25.60;99.90
36594;DHT22;22603;47.900;8.146;2023-07-20T07:44:35;25.10;99.90
36594;DHT22;22603;47.900;8.146;2023-07-20T07:47:22;24.30;99.90
36594;DHT22;22603;47.900;8.146;2023-07-20T07:50:10;24.40;99.90
36594;DHT22;22603;47.900;8.146;2023-07-20T07:52:57;24.10;99.90
36594;DHT22;22603;47.900;8.146;2023-07-20T07:55:44;23.90;99.90
36594;DHT22;22603;47.900;8.146;2023-07-20T07:58:32;23.80;99.90
36594;DHT22;22603;47.900;8.146;2023-07-20T08:01:18;24.00;99.90
36594;DHT22;22603;47.900;8.146;2023-07-20T08:04:06;23.00;99.90
36594;DHT22;22603;47.900;8.146;2023-07-20T08:06:53;22.70;99.90
36594;DHT22;22603;47.900;8.146;2023-07-20T08:09:40;22.80;99.90
36594;DHT22;22603;47.900;8.146;2023-07-20T08:12:27;22.90;99.90
36594;DHT22;22603;47.900;8.146;2023-07-20T08:15:15;22.80;99.90
36594;DHT22;22603;47.900;8.146;2023-07-20T08:18:02;22.70;99.90
36594;DHT22;22603;47.900;8.146;2023-07-20T08:20:53;23.30;99.90
36594;DHT22;22603;47.900;8.146;2023-07-20T08:23:40;23.20;99.90
36594;DHT22;22603;47.900;8.146;2023-07-20T08:26:26;24.00;99.90
36594;DHT22;22603;47.900;8.146;2023-07-20T08:29:13;23.30;99.90
36594;DHT22;22603;47.900;8.146;2023-07-20T08:32:02;22.80;99.90
36594;DHT22;22603;47.900;8.146;2023-07-20T08:34:49;22.40;99.90
36594;DHT22;22603;47.900;8.146;2023-07-20T08:37:36;22.60;99.90
36594;DHT22;22603;47.900;8.146;2023-07-20T08:40:23;22.40;99.90
36594;DHT22;22603;47.900;8.146;2023-07-20T08:43:11;22.90;99.90
36594;DHT22;22603;47.900;8.146;2023-07-20T08:46:01;22.50;99.90
36594;DHT22;22603;47.900;8.146;2023-07-20T08:48:50;22.40;99.90
36594;DHT22;22603;47.900;8.146;2023-07-20T08:51:41;22.00;99.90
36594;DHT22;22603;47.900;8.146;2023-07-20T08:54:30;22.30;99.90
36594;DHT22;22603;47.900;8.146;2023-07-20T08:57:18;22.40;99.90
36594;DHT22;22603;47.900;8.146;2023-07-20T09:00:09;22.20;99.90
36594;DHT22;22603;47.900;8.146;2023-07-20T09:02:59;22.60;99.90
36594;DHT22;22603;47.900;8.146;2023-07-20T09:05:50;23.90;99.90
36594;DHT22;22603;47.900;8.146;2023-07-20T09:08:38;24.30;99.90
36594;DHT22;22603;47.900;8.146;2023-07-20T09:11:25;24.90;99.90
36594;DHT22;22603;47.900;8.146;2023-07-20T09:14:11;24.70;99.90
36594;DHT22;22603;47.900;8.146;2023-07-20T09:16:58;24.40;99.90
36594;DHT22;22603;47.900;8.146;2023-07-20T09:19:46;24.10;99.90
36594;DHT22;22603;47.900;8.146;2023-07-20T09:22:35;23.90;99.90
36594;DHT22;22603;47.900;8.146;2023-07-20T09:25:23;23.90;99.90
36594;DHT22;22603;47.900;8.146;2023-07-20T09:28:14;24.60;99.90
36594;DHT22;22603;47.900;8.146;2023-07-20T09:31:15;25.50;99.90
36594;DHT22;22603;47.900;8.146;2023-07-20T09:34:03;25.50;99.90
36594;DHT22;22603;47.900;8.146;2023-07-20T09:36:51;26.10;99.90
36594;DHT22;22603;47.900;8.146;2023-07-20T09:39:46;25.80;99.90
36594;DHT22;22603;47.900;8.146;2023-07-20T09:42:37;25.30;99.90
36594;DHT22;22603;47.900;8.146;2023-07-20T09:45:24;24.70;99.90
36594;DHT22;22603;47.900;8.146;2023-07-20T09:48:17;24.40;99.90
36594;DHT22;22603;47.900;8.146;2023-07-20T09:51:10;24.00;99.90
36594;DHT22;22603;47.900;8.146;2023-07-20T09:53:57;23.90;99.90
36594;DHT22;22603;47.900;8.146;2023-07-20T09:56:46;24.40;99.90
36594;DHT22;22603;47.900;8.146;2023-07-20T09:59:33;24.40;99.90
36594;DHT22;22603;47.900;8.146;2023-07-20T10:02:27;24.40;99.90
36594;DHT22;22603;47.900;8.146;2023-07-20T10:05:17;24.40;99.90
36594;DHT22;22603;47.900;8.146;2023-07-20T10:08:05;24.40;99.90
36594;DHT22;22603;47.900;8.146;2023-07-20T10:11:00;25.20;99.90
36594;DHT22;22603;47.900;8.146;2023-07-20T10:13:51;25.90;99.90
36594;DHT22;22603;47.900;8.146;2023-07-20T10:16:44;25.80;99.90
36594;DHT22;22603;47.900;8.146;2023-07-20T10:19:39;26.00;99.90
36594;DHT22;22603;47.900;8.146;2023-07-20T10:22:37;27.20;99.90
36594;DHT22;22603;47.900;8.146;2023-07-20T10:25:28;28.20;99.90
36594;DHT22;22603;47.900;8.146;2023-07-20T10:28:16;28.00;99.90
36594;DHT22;22603;47.900;8.146;2023-07-20T10:31:06;27.10;99.90
36594;DHT22;22603;47.900;8.146;2023-07-20T10:33:53;26.60;99.90
36594;DHT22;22603;47.900;8.146;2023-07-20T10:36:44;26.90;99.90
36594;DHT22;22603;47.900;8.146;2023-07-20T10:39:32;27.20;99.90
36594;DHT22;22603;47.900;8.146;2023-07-20T10:42:20;27.40;99.90
36594;DHT22;22603;47.900;8.146;2023-07-20T10:45:07;27.60;99.90
36594;DHT22;22603;47.900;8.146;2023-07-20T10:47:56;27.70;99.90
36594;DHT22;22603;47.900;8.146;2023-07-20T10:50:43;28.70;99.90
36594;DHT22;22603;47.900;8.146;2023-07-20T10:53:30;29.10;99.90
36594;DHT22;22603;47.900;8.146;2023-07-20T10:56:20;30.10;99.90
36594;DHT22;22603;47.900;8.146;2023-07-20T10:59:18;30.60;99.90
36594;DHT22;22603;47.900;8.146;2023-07-20T11:02:06;30.70;99.90
36594;DHT22;22603;47.900;8.146;2023-07-20T11:04:54;30.50;99.90
36594;DHT22;22603;47.900;8.146;2023-07-20T11:07:44;30.10;99.90
36594;DHT22;22603;47.900;8.146;2023-07-20T11:10:32;30.30;99.90
36594;DHT22;22603;47.900;8.146;2023-07-20T11:13:23;29.80;99.90
36594;DHT22;22603;47.900;8.146;2023-07-20T11:16:11;30.50;99.90
36594;DHT22;22603;47.900;8.146;2023-07-20T11:18:57;29.90;99.90
36594;DHT22;22603;47.900;8.146;2023-07-20T11:21:49;29.40;99.90
36594;DHT22;22603;47.900;8.146;2023-07-20T11:24:48;29.50;99.90
36594;DHT22;22603;47.900;8.146;2023-07-20T11:27:44;29.60;99.90
36594;DHT22;22603;47.900;8.146;2023-07-20T11:30:32;29.50;99.90
36594;DHT22;22603;47.900;8.146;2023-07-20T11:33:21;29.50;99.90
36594;DHT22;22603;47.900;8.146;2023-07-20T11:36:08;29.70;99.90
36594;DHT22;22603;47.900;8.146;2023-07-20T11:39:00;29.50;99.90
36594;DHT22;22603;47.900;8.146;2023-07-20T11:41:50;29.20;99.90
36594;DHT22;22603;47.900;8.146;2023-07-20T11:44:38;28.90;99.90
36594;DHT22;22603;47.900;8.146;2023-07-20T11:47:29;28.20;99.90
36594;DHT22;22603;47.900;8.146;2023-07-20T11:50:16;27.60;99.90
36594;DHT22;22603;47.900;8.146;2023-07-20T11:53:02;27.70;99.90
36594;DHT22;22603;47.900;8.146;2023-07-20T11:55:51;28.30;99.90
36594;DHT22;22603;47.900;8.146;2023-07-20T11:58:42;27.70;99.90
36594;DHT22;22603;47.900;8.146;2023-07-20T12:01:30;28.10;99.90
36594;DHT22;22603;47.900;8.146;2023-07-20T12:04:22;28.60;99.90
36594;DHT22;22603;47.900;8.146;2023-07-20T12:07:08;28.80;99.90
36594;DHT22;22603;47.900;8.146;2023-07-20T12:10:06;28.10;99.90
36594;DHT22;22603;47.900;8.146;2023-07-20T12:12:55;28.10;99.90
36594;DHT22;22603;47.900;8.146;2023-07-20T12:15:47;28.50;99.90
36594;DHT22;22603;47.900;8.146;2023-07-20T12:18:35;28.90;99.90
36594;DHT22;22603;47.900;8.146;2023-07-20T12:21:22;28.70;99.90
36594;DHT22;22603;47.900;8.146;2023-07-20T12:24:10;28.80;99.90
36594;DHT22;22603;47.900;8.146;2023-07-20T12:26:58;28.80;99.90
36594;DHT22;22603;47.900;8.146;2023-07-20T12:29:46;28.80;99.90
36594;DHT22;22603;47.900;8.146;2023-07-20T12:32:33;28.60;99.90
36594;DHT22;22603;47.900;8.146;2023-07-20T12:35:20;28.40;99.90
36594;DHT22;22603;47.900;8.146;2023-07-20T12:38:06;28.60;99.90
36594;DHT22;22603;47.900;8.146;2023-07-20T12:40:54;28.20;99.90
36594;DHT22;22603;47.900;8.146;2023-07-20T12:43:42;28.30;99.90
36594;DHT22;22603;47.900;8.146;2023-07-20T12:46:30;27.60;99.90
36594;DHT22;22603;47.900;8.146;2023-07-20T12:49:20;27.80;99.90
36594;DHT22;22603;47.900;8.146;2023-07-20T12:52:07;27.70;99.90
36594;DHT22;22603;47.900;8.146;2023-07-20T12:54:54;27.70;99.90
36594;DHT22;22603;47.900;8.146;2023-07-20T12:57:41;27.70;99.90
36594;DHT22;22603;47.900;8.146;2023-07-20T13:00:28;27.80;99.90
36594;DHT22;22603;47.900;8.146;2023-07-20T13:03:16;28.20;99.90
36594;DHT22;22603;47.900;8.146;2023-07-20T13:06:08;28.10;99.90
36594;DHT22;22603;47.900;8.146;2023-07-20T13:08:58;28.50;99.90
36594;DHT22;22603;47.900;8.146;2023-07-20T13:11:44;28.00;99.90
36594;DHT22;22603;47.900;8.146;2023-07-20T13:14:31;28.30;99.90
36594;DHT22;22603;47.900;8.146;2023-07-20T13:17:18;28.40;99.90
36594;DHT22;22603;47.900;8.146;2023-07-20T13:20:08;28.30;99.90
36594;DHT22;22603;47.900;8.146;2023-07-20T13:22:56;28.30;99.90
36594;DHT22;22603;47.900;8.146;2023-07-20T13:25:43;28.20;99.90
36594;DHT22;22603;47.900;8.146;2023-07-20T13:28:30;28.20;99.90
36594;DHT22;22603;47.900;8.146;2023-07-20T13:31:17;28.10;99.90
36594;DHT22;22603;47.900;8.146;2023-07-20T13:34:03;28.10;99.90
36594;DHT22;22603;47.900;8.146;2023-07-20T13:36:54;28.00;99.90
36594;DHT22;22603;47.900;8.146;2023-07-20T13:39:41;27.80;99.90
36594;DHT22;22603;47.900;8.146;2023-07-20T13:42:28;27.20;99.90
36594;DHT22;22603;47.900;8.146;2023-07-20T13:45:15;27.20;99.90
36594;DHT22;22603;47.900;8.146;2023-07-20T13:48:02;27.30;99.90
36594;DHT22;22603;47.900;8.146;2023-07-20T13:50:51;27.40;99.90
36594;DHT22;22603;47.900;8.146;2023-07-20T13:53:42;26.60;99.90
36594;DHT22;22603;47.900;8.146;2023-07-20T13:56:34;26.20;99.90
36594;DHT22;22603;47.900;8.146;2023-07-20T13:59:21;26.20;99.90
36594;DHT22;22603;47.900;8.146;2023-07-20T14:02:07;26.20;99.90
36594;DHT22;22603;47.900;8.146;2023-07-20T14:04:57;26.40;99.90
36594;DHT22;22603;47.900;8.146;2023-07-20T14:07:48;25.80;99.90
36594;DHT22;22603;47.900;8.146;2023-07-20T14:10:36;26.30;99.90
36594;DHT22;22603;47.900;8.146;2023-07-20T14:13:43;26.20;99.90
36594;DHT22;22603;47.900;8.146;2023-07-20T14:16:32;26.10;99.90
36594;DHT22;22603;47.900;8.146;2023-07-20T14:19:19;25.80;99.90
36594;DHT22;22603;47.900;8.146;2023-07-20T14:22:06;26.30;99.90
36594;DHT22;22603;47.900;8.146;2023-07-20T14:24:52;26.60;99.90
36594;DHT22;22603;47.900;8.146;2023-07-20T14:27:41;26.60;99.90
36594;DHT22;22603;47.900;8.146;2023-07-20T14:30:29;25.80;99.90
36594;DHT22;22603;47.900;8.146;2023-07-20T14:33:16;25.60;99.90
36594;DHT22;22603;47.900;8.146;2023-07-20T14:36:03;26.20;99.90
36594;DHT22;22603;47.900;8.146;2023-07-20T14:38:50;26.20;99.90
36594;DHT22;22603;47.900;8.146;2023-07-20T14:41:37;26.50;99.90
36594;DHT22;22603;47.900;8.146;2023-07-20T14:44:25;26.60;99.90
36594;DHT22;22603;47.900;8.146;2023-07-20T14:47:12;26.40;99.90
36594;DHT22;22603;47.900;8.146;2023-07-20T14:50:01;26.10;99.90
36594;DHT22;22603;47.900;8.146;2023-07-20T14:52:48;26.10;99.90
36594;DHT22;22603;47.900;8.146;2023-07-20T14:55:35;26.40;99.90
36594;DHT22;22603;47.900;8.146;2023-07-20T14:58:22;26.60;99.90
36594;DHT22;22603;47.900;8.146;2023-07-20T15:01:09;26.40;99.90
36594;DHT22;22603;47.900;8.146;2023-07-20T15:03:56;26.60;99.90
36594;DHT22;22603;47.900;8.146;2023-07-20T15:06:46;26.40;99.90
36594;DHT22;22603;47.900;8.146;2023-07-20T15:09:33;26.80;99.90
36594;DHT22;22603;47.900;8.146;2023-07-20T15:12:20;26.60;99.90
36594;DHT22;22603;47.900;8.146;2023-07-20T15:15:08;26.70;99.90
36594;DHT22;22603;47.900;8.146;2023-07-20T15:17:56;26.00;99.90
36594;DHT22;22603;47.900;8.146;2023-07-20T15:20:43;26.40;99.90
36594;DHT22;22603;47.900;8.146;2023-07-20T15:23:30;26.30;99.90
36594;DHT22;22603;47.900;8.146;2023-07-20T15:26:17;26.60;99.90
36594;DHT22;22603;47.900;8.146;2023-07-20T15:29:04;26.20;99.90
36594;DHT22;22603;47.900;8.146;2023-07-20T15:31:51;25.80;99.90
36594;DHT22;22603;47.900;8.146;2023-07-20T15:34:42;25.50;99.90
36594;DHT22;22603;47.900;8.146;2023-07-20T15:37:28;25.40;99.90
36594;DHT22;22603;47.900;8.146;2023-07-20T15:40:15;25.30;99.90
36594;DHT22;22603;47.900;8.146;2023-07-20T15:43:02;25.50;99.90
36594;DHT22;22603;47.900;8.146;2023-07-20T15:49:41;25.80;99.90
36594;DHT22;22603;47.900;8.146;2023-07-20T15:52:31;25.10;99.90
36594;DHT22;22603;47.900;8.146;2023-07-20T15:55:17;25.10;99.90
36594;DHT22;22603;47.900;8.146;2023-07-20T15:58:04;25.10;99.90
36594;DHT22;22603;47.900;8.146;2023-07-20T16:00:53;25.40;99.90
36594;DHT22;22603;47.900;8.146;2023-07-20T16:03:41;25.80;99.90
36594;DHT22;22603;47.900;8.146;2023-07-20T16:06:30;26.00;99.90
36594;DHT22;22603;47.900;8.146;2023-07-20T16:09:17;25.60;99.90
36594;DHT22;22603;47.900;8.146;2023-07-20T16:12:05;25.70;99.90
36594;DHT22;22603;47.900;8.146;2023-07-20T16:14:52;25.70;99.90
36594;DHT22;22603;47.900;8.146;2023-07-20T16:17:42;25.60;99.90
36594;DHT22;22603;47.900;8.146;2023-07-20T16:20:29;25.30;99.90
36594;DHT22;22603;47.900;8.146;2023-07-20T16:23:17;24.70;99.90
36594;DHT22;22603;47.900;8.146;2023-07-20T16:26:04;24.90;99.90
36594;DHT22;22603;47.900;8.146;2023-07-20T16:28:50;25.00;99.90
36594;DHT22;22603;47.900;8.146;2023-07-20T16:31:57;25.40;99.90
36594;DHT22;22603;47.900;8.146;2023-07-20T16:34:47;25.60;99.90
36594;DHT22;22603;47.900;8.146;2023-07-20T16:37:34;25.60;99.90
36594;DHT22;22603;47.900;8.146;2023-07-20T16:40:22;25.60;99.90
36594;DHT22;22603;47.900;8.146;2023-07-20T16:43:12;25.50;99.90
36594;DHT22;22603;47.900;8.146;2023-07-20T16:45:59;25.50;99.90
36594;DHT22;22603;47.900;8.146;2023-07-20T16:49:06;25.40;99.90
36594;DHT22;22603;47.900;8.146;2023-07-20T16:51:54;24.90;99.90
36594;DHT22;22603;47.900;8.146;2023-07-20T16:54:42;24.80;99.90
36594;DHT22;22603;47.900;8.146;2023-07-20T16:57:30;24.90;99.90
36594;DHT22;22603;47.900;8.146;2023-07-20T17:00:17;24.80;99.90
36594;DHT22;22603;47.900;8.146;2023-07-20T17:03:04;24.70;99.90
36594;DHT22;22603;47.900;8.146;2023-07-20T17:05:51;24.50;99.90
36594;DHT22;22603;47.900;8.146;2023-07-20T17:08:38;24.30;99.90
36594;DHT22;22603;47.900;8.146;2023-07-20T17:11:24;24.30;99.90
36594;DHT22;22603;47.900;8.146;2023-07-20T17:14:13;24.30;99.90
36594;DHT22;22603;47.900;8.146;2023-07-20T17:16:59;24.30;99.90
36594;DHT22;22603;47.900;8.146;2023-07-20T17:19:46;24.10;99.90
36594;DHT22;22603;47.900;8.146;2023-07-20T17:22:53;24.10;99.90
36594;DHT22;22603;47.900;8.146;2023-07-20T17:25:43;24.10;99.90
36594;DHT22;22603;47.900;8.146;2023-07-20T17:28:33;23.70;99.90
36594;DHT22;22603;47.900;8.146;2023-07-20T17:31:24;23.60;99.90
36594;DHT22;22603;47.900;8.146;2023-07-20T17:34:14;23.50;99.90
36594;DHT22;22603;47.900;8.146;2023-07-20T17:37:00;23.40;99.90
36594;DHT22;22603;47.900;8.146;2023-07-20T17:39:51;23.20;99.90
36594;DHT22;22603;47.900;8.146;2023-07-20T17:42:41;23.10;99.90
36594;DHT22;22603;47.900;8.146;2023-07-20T17:45:30;23.00;99.90
36594;DHT22;22603;47.900;8.146;2023-07-20T17:48:19;22.70;99.90
36594;DHT22;22603;47.900;8.146;2023-07-20T17:51:07;22.60;99.90